sensor_id;sensor_type;location;lat;lon;timestamp;noise_LAeq;noise_LA_min;noise_LA_max;noise_LA01;noise_LA95
84579;Laerm;74804;52.100;5.116;2024-01-06T00:01:16;35.94;31.49;47.17;;
84579;Laerm;74804;52.100;5.116;2024-01-06T00:03:50;36.65;32.12;46.24;;
84579;Laerm;74804;52.100;5.116;2024-01-06T00:06:21;35.95;31.16;46.52;;
84579;Laerm;74804;52.100;5.116;2024-01-06T00:08:52;40.52;33.01;55.56;;
84579;Laerm;74804;52.100;5.116;2024-01-06T00:11:24;37.59;32.23;47.93;;
84579;Laerm;74804;52.100;5.116;2024-01-06T00:13:55;40.17;32.93;58.79;;
84579;Laerm;74804;52.100;5.116;2024-01-06T00:16:29;41.81;32.80;55.80;;
84579;Laerm;74804;52.100;5.116;2024-01-06T00:19:00;40.55;32.58;53.47;;
84579;Laerm;74804;52.100;5.116;2024-01-06T00:21:31;37.19;32.53;49.98;;
84579;Laerm;74804;52.100;5.116;2024-01-06T00:24:03;35.79;31.22;46.96;;
84579;Laerm;74804;52.100;5.116;2024-01-06T00:26:34;36.13;31.55;44.51;;
84579;Laerm;74804;52.100;5.116;2024-01-06T00:29:05;38.85;31.34;55.36;;
84579;Laerm;74804;52.100;5.116;2024-01-06T00:31:39;38.94;31.56;53.71;;
84579;Laerm;74804;52.100;5.116;2024-01-06T00:34:10;37.87;32.41;49.70;;
84579;Laerm;74804;52.100;5.116;2024-01-06T00:36:41;35.17;32.10;42.16;;
84579;Laerm;74804;52.100;5.116;2024-01-06T00:39:12;33.52;30.78;42.60;;
84579;Laerm;74804;52.100;5.116;2024-01-06T00:41:43;37.36;30.82;52.09;;
84579;Laerm;74804;52.100;5.116;2024-01-06T00:44:14;36.19;31.16;42.28;;
84579;Laerm;74804;52.100;5.116;2024-01-06T00:46:48;32.91;30.52;37.44;;
84579;Laerm;74804;52.100;5.116;2024-01-06T00:49:19;36.59;30.06;55.56;;
84579;Laerm;74804;52.100;5.116;2024-01-06T00:51:50;34.69;30.31;44.85;;
84579;Laerm;74804;52.100;5.116;2024-01-06T00:54:22;40.21;30.68;59.22;;
84579;Laerm;74804;52.100;5.116;2024-01-06T00:56:53;34.27;30.71;38.72;;
84579;Laerm;74804;52.100;5.116;2024-01-06T00:59:24;36.59;31.10;52.45;;
84579;Laerm;74804;52.100;5.116;2024-01-06T01:01:58;40.94;32.13;53.87;;
84579;Laerm;74804;52.100;5.116;2024-01-06T01:04:29;34.60;30.87;45.29;;
84579;Laerm;74804;52.100;5.116;2024-01-06T01:06:58;36.53;30.44;54.78;;
84579;Laerm;74804;52.100;5.116;2024-01-06T01:09:29;38.90;30.80;51.97;;
84579;Laerm;74804;52.100;5.116;2024-01-06T01:12:00;36.01;30.72;44.62;;
84579;Laerm;74804;52.100;5.116;2024-01-06T01:14:31;36.86;30.90;53.02;;
84579;Laerm;74804;52.100;5.116;2024-01-06T01:17:05;34.12;30.21;45.05;;
84579;Laerm;74804;52.100;5.116;2024-01-06T01:19:36;34.96;30.75;42.53;;
84579;Laerm;74804;52.100;5.116;2024-01-06T01:22:07;37.63;30.99;48.63;;
84579;Laerm;74804;52.100;5.116;2024-01-06T01:24:39;36.06;30.62;45.43;;
84579;Laerm;74804;52.100;5.116;2024-01-06T01:27:10;33.25;29.93;41.62;;
84579;Laerm;74804;52.100;5.116;2024-01-06T01:29:41;36.39;30.10;47.61;;
84579;Laerm;74804;52.100;5.116;2024-01-06T01:32:15;36.49;30.64;51.19;;
84579;Laerm;74804;52.100;5.116;2024-01-06T01:34:46;35.21;30.85;46.28;;
84579;Laerm;74804;52.100;5.116;2024-01-06T01:37:17;35.20;31.67;43.77;;
84579;Laerm;74804;52.100;5.116;2024-01-06T01:39:48;34.51;30.84;44.95;;
84579;Laerm;74804;52.100;5.116;2024-01-06T01:42:19;35.08;30.35;44.92;;
84579;Laerm;74804;52.100;5.116;2024-01-06T01:44:50;40.10;30.91;58.85;;
84579;Laerm;74804;52.100;5.116;2024-01-06T01:47:24;37.55;30.37;58.32;;
84579;Laerm;74804;52.100;5.116;2024-01-06T01:49:55;39.78;31.97;57.36;;
84579;Laerm;74804;52.100;5.116;2024-01-06T01:52:27;32.23;29.98;39.34;;
84579;Laerm;74804;52.100;5.116;2024-01-06T01:54:59;35.86;30.17;47.48;;
84579;Laerm;74804;52.100;5.116;2024-01-06T01:57:30;35.37;30.53;43.92;;
84579;Laerm;74804;52.100;5.116;2024-01-06T02:00:01;34.49;30.61;47.62;;
84579;Laerm;74804;52.100;5.116;2024-01-06T02:02:36;35.25;30.20;42.11;;
84579;Laerm;74804;52.100;5.116;2024-01-06T02:05:07;35.52;31.73;42.33;;
84579;Laerm;74804;52.100;5.116;2024-01-06T02:07:38;34.02;30.85;40.07;;
84579;Laerm;74804;52.100;5.116;2024-01-06T02:10:09;36.83;31.56;49.69;;
84579;Laerm;74804;52.100;5.116;2024-01-06T02:12:40;40.11;30.81;55.40;;
84579;Laerm;74804;52.100;5.116;2024-01-06T02:15:12;41.10;31.30;58.65;;
84579;Laerm;74804;52.100;5.116;2024-01-06T02:17:46;36.48;30.48;45.80;;
84579;Laerm;74804;52.100;5.116;2024-01-06T02:20:17;35.01;30.06;48.75;;
84579;Laerm;74804;52.100;5.116;2024-01-06T02:22:53;32.92;29.99;40.24;;
84579;Laerm;74804;52.100;5.116;2024-01-06T02:25:26;37.88;31.66;55.79;;
84579;Laerm;74804;52.100;5.116;2024-01-06T02:27:57;36.01;29.93;47.10;;
84579;Laerm;74804;52.100;5.116;2024-01-06T02:30:28;33.08;29.75;40.36;;
84579;Laerm;74804;52.100;5.116;2024-01-06T02:32:59;34.83;30.17;49.90;;
84579;Laerm;74804;52.100;5.116;2024-01-06T02:35:30;33.63;30.34;43.66;;
84579;Laerm;74804;52.100;5.116;2024-01-06T02:38:04;36.99;30.32;58.76;;
84579;Laerm;74804;52.100;5.116;2024-01-06T02:40:36;33.61;30.13;44.79;;
84579;Laerm;74804;52.100;5.116;2024-01-06T02:43:07;32.92;30.21;41.33;;
84579;Laerm;74804;52.100;5.116;2024-01-06T02:45:38;34.76;30.30;45.21;;
84579;Laerm;74804;52.100;5.116;2024-01-06T02:48:09;33.63;30.42;40.90;;
84579;Laerm;74804;52.100;5.116;2024-01-06T02:50:40;36.51;30.89;51.97;;
84579;Laerm;74804;52.100;5.116;2024-01-06T02:53:14;35.45;31.00;51.36;;
84579;Laerm;74804;52.100;5.116;2024-01-06T02:55:45;34.10;30.65;39.33;;
84579;Laerm;74804;52.100;5.116;2024-01-06T02:58:16;33.95;30.27;39.24;;
84579;Laerm;74804;52.100;5.116;2024-01-06T03:00:47;34.34;30.71;39.75;;
84579;Laerm;74804;52.100;5.116;2024-01-06T03:03:18;36.30;30.47;51.80;;
84579;Laerm;74804;52.100;5.116;2024-01-06T03:05:49;35.78;30.31;49.29;;
84579;Laerm;74804;52.100;5.116;2024-01-06T03:08:23;32.11;29.99;41.92;;
84579;Laerm;74804;52.100;5.116;2024-01-06T03:10:54;35.17;30.59;50.74;;
84579;Laerm;74804;52.100;5.116;2024-01-06T03:13:25;38.20;30.35;59.11;;
84579;Laerm;74804;52.100;5.116;2024-01-06T03:15:57;33.66;30.78;40.83;;
84579;Laerm;74804;52.100;5.116;2024-01-06T03:18:28;34.40;30.98;42.04;;
84579;Laerm;74804;52.100;5.116;2024-01-06T03:20:59;34.74;30.39;51.31;;
84579;Laerm;74804;52.100;5.116;2024-01-06T03:23:33;34.07;30.67;40.86;;
84579;Laerm;74804;52.100;5.116;2024-01-06T03:26:05;33.74;30.63;41.74;;
84579;Laerm;74804;52.100;5.116;2024-01-06T03:28:36;39.43;30.99;50.88;;
84579;Laerm;74804;52.100;5.116;2024-01-06T03:31:07;39.52;31.12;48.75;;
84579;Laerm;74804;52.100;5.116;2024-01-06T03:33:38;33.03;30.72;44.05;;
84579;Laerm;74804;52.100;5.116;2024-01-06T03:36:12;36.32;32.18;42.41;;
84579;Laerm;74804;52.100;5.116;2024-01-06T03:38:46;37.09;31.59;47.64;;
84579;Laerm;74804;52.100;5.116;2024-01-06T03:41:18;34.52;31.17;49.04;;
84579;Laerm;74804;52.100;5.116;2024-01-06T03:43:49;35.51;30.15;46.93;;
84579;Laerm;74804;52.100;5.116;2024-01-06T03:46:20;32.53;30.20;38.86;;
84579;Laerm;74804;52.100;5.116;2024-01-06T03:48:51;33.25;30.50;38.63;;
84579;Laerm;74804;52.100;5.116;2024-01-06T03:51:22;35.77;30.93;50.37;;
84579;Laerm;74804;52.100;5.116;2024-01-06T03:53:56;35.21;30.40;47.38;;
84579;Laerm;74804;52.100;5.116;2024-01-06T03:56:28;35.05;30.71;46.07;;
84579;Laerm;74804;52.100;5.116;2024-01-06T03:58:59;34.44;30.68;47.36;;
84579;Laerm;74804;52.100;5.116;2024-01-06T04:01:30;35.17;30.68;43.78;;
84579;Laerm;74804;52.100;5.116;2024-01-06T04:04:02;33.25;30.80;39.69;;
84579;Laerm;74804;52.100;5.116;2024-01-06T04:06:33;33.59;30.74;40.61;;
84579;Laerm;74804;52.100;5.116;2024-01-06T04:09:07;33.08;30.63;36.79;;
84579;Laerm;74804;52.100;5.116;2024-01-06T04:11:38;36.45;30.02;54.89;;
84579;Laerm;74804;52.100;5.116;2024-01-06T04:14:09;39.61;30.80;50.89;;
84579;Laerm;74804;52.100;5.116;2024-01-06T04:16:40;34.28;30.85;41.80;;
84579;Laerm;74804;52.100;5.116;2024-01-06T04:19:11;32.81;30.50;41.29;;
84579;Laerm;74804;52.100;5.116;2024-01-06T04:21:42;36.89;30.81;47.78;;
84579;Laerm;74804;52.100;5.116;2024-01-06T04:24:17;32.13;30.42;38.67;;
84579;Laerm;74804;52.100;5.116;2024-01-06T04:26:49;34.08;30.59;41.49;;
84579;Laerm;74804;52.100;5.116;2024-01-06T04:29:20;34.32;31.09;40.95;;
84579;Laerm;74804;52.100;5.116;2024-01-06T04:31:51;32.99;30.49;40.80;;
84579;Laerm;74804;52.100;5.116;2024-01-06T04:34:22;37.64;30.43;49.05;;
84579;Laerm;74804;52.100;5.116;2024-01-06T04:36:54;34.86;30.97;46.77;;
84579;Laerm;74804;52.100;5.116;2024-01-06T04:39:27;34.10;30.94;44.07;;
84579;Laerm;74804;52.100;5.116;2024-01-06T04:41:58;35.91;30.41;47.45;;
84579;Laerm;74804;52.100;5.116;2024-01-06T04:44:30;40.06;30.88;56.72;;
84579;Laerm;74804;52.100;5.116;2024-01-06T04:47:01;40.32;32.01;55.09;;
84579;Laerm;74804;52.100;5.116;2024-01-06T04:49:32;34.70;30.86;44.50;;
84579;Laerm;74804;52.100;5.116;2024-01-06T04:52:03;34.10;31.07;43.08;;
84579;Laerm;74804;52.100;5.116;2024-01-06T04:54:37;32.57;30.34;38.78;;
84579;Laerm;74804;52.100;5.116;2024-01-06T04:57:08;33.76;30.84;40.61;;
84579;Laerm;74804;52.100;5.116;2024-01-06T04:59:39;34.42;30.71;44.16;;
84579;Laerm;74804;52.100;5.116;2024-01-06T05:02:11;35.06;30.89;43.27;;
84579;Laerm;74804;52.100;5.116;2024-01-06T05:04:42;39.34;31.47;54.36;;
84579;Laerm;74804;52.100;5.116;2024-01-06T05:07:13;34.06;30.70;43.18;;
84579;Laerm;74804;52.100;5.116;2024-01-06T05:09:46;33.85;30.40;40.62;;
84579;Laerm;74804;52.100;5.116;2024-01-06T05:12:18;38.03;30.59;50.26;;
84579;Laerm;74804;52.100;5.116;2024-01-06T05:14:49;34.74;30.48;42.21;;
84579;Laerm;74804;52.100;5.116;2024-01-06T05:17:20;34.04;30.24;41.78;;
84579;Laerm;74804;52.100;5.116;2024-01-06T05:19:51;33.13;30.72;40.45;;
84579;Laerm;74804;52.100;5.116;2024-01-06T05:22:22;34.12;30.97;40.46;;
84579;Laerm;74804;52.100;5.116;2024-01-06T05:24:56;34.52;31.17;47.10;;
84579;Laerm;74804;52.100;5.116;2024-01-06T05:27:27;34.75;31.41;40.04;;
84579;Laerm;74804;52.100;5.116;2024-01-06T05:29:58;34.29;31.21;40.48;;
84579;Laerm;74804;52.100;5.116;2024-01-06T05:32:29;38.31;31.81;54.49;;
84579;Laerm;74804;52.100;5.116;2024-01-06T05:35:00;33.30;30.81;39.94;;
84579;Laerm;74804;52.100;5.116;2024-01-06T05:37:32;34.68;31.21;41.30;;
84579;Laerm;74804;52.100;5.116;2024-01-06T05:40:08;33.38;31.16;38.84;;
84579;Laerm;74804;52.100;5.116;2024-01-06T05:42:40;34.79;31.14;41.42;;
84579;Laerm;74804;52.100;5.116;2024-01-06T05:45:11;35.77;31.88;44.53;;
84579;Laerm;74804;52.100;5.116;2024-01-06T05:47:43;33.24;31.43;37.39;;
84579;Laerm;74804;52.100;5.116;2024-01-06T05:50:14;35.09;31.25;42.73;;
84579;Laerm;74804;52.100;5.116;2024-01-06T05:52:46;39.20;32.26;51.21;;
84579;Laerm;74804;52.100;5.116;2024-01-06T05:55:20;40.82;31.16;51.67;;
84579;Laerm;74804;52.100;5.116;2024-01-06T05:57:51;36.23;31.02;50.07;;
84579;Laerm;74804;52.100;5.116;2024-01-06T06:00:22;35.63;31.29;45.23;;
84579;Laerm;74804;52.100;5.116;2024-01-06T06:02:54;42.86;31.80;57.30;;
84579;Laerm;74804;52.100;5.116;2024-01-06T06:05:25;38.82;32.47;54.36;;
84579;Laerm;74804;52.100;5.116;2024-01-06T06:07:56;35.41;32.19;40.74;;
84579;Laerm;74804;52.100;5.116;2024-01-06T06:10:30;38.70;32.28;49.64;;
84579;Laerm;74804;52.100;5.116;2024-01-06T06:13:08;38.33;32.00;51.34;;
84579;Laerm;74804;52.100;5.116;2024-01-06T06:15:40;37.38;31.44;49.83;;
84579;Laerm;74804;52.100;5.116;2024-01-06T06:18:11;38.06;32.54;50.52;;
84579;Laerm;74804;52.100;5.116;2024-01-06T06:20:42;37.38;31.82;43.68;;
84579;Laerm;74804;52.100;5.116;2024-01-06T06:23:13;39.14;33.77;50.11;;
84579;Laerm;74804;52.100;5.116;2024-01-06T06:25:47;37.21;32.75;45.04;;
84579;Laerm;74804;52.100;5.116;2024-01-06T06:28:19;37.22;32.48;43.26;;
84579;Laerm;74804;52.100;5.116;2024-01-06T06:30:50;40.00;33.29;53.52;;
84579;Laerm;74804;52.100;5.116;2024-01-06T06:33:21;37.18;33.71;44.90;;
84579;Laerm;74804;52.100;5.116;2024-01-06T06:35:52;38.53;33.87;48.22;;
84579;Laerm;74804;52.100;5.116;2024-01-06T06:38:23;37.54;33.18;42.32;;
84579;Laerm;74804;52.100;5.116;2024-01-06T06:40:58;55.78;35.00;66.67;;
84579;Laerm;74804;52.100;5.116;2024-01-06T06:43:29;60.92;53.05;72.39;;
84579;Laerm;74804;52.100;5.116;2024-01-06T06:46:00;60.12;53.51;71.98;;
84579;Laerm;74804;52.100;5.116;2024-01-06T06:48:32;48.05;33.36;71.85;;
84579;Laerm;74804;52.100;5.116;2024-01-06T06:51:03;40.08;34.43;53.51;;
84579;Laerm;74804;52.100;5.116;2024-01-06T06:53:34;39.35;34.23;48.89;;
84579;Laerm;74804;52.100;5.116;2024-01-06T06:56:08;39.86;33.75;55.72;;
84579;Laerm;74804;52.100;5.116;2024-01-06T06:58:41;37.93;33.94;48.60;;
84579;Laerm;74804;52.100;5.116;2024-01-06T07:01:13;37.15;32.38;48.66;;
84579;Laerm;74804;52.100;5.116;2024-01-06T07:03:44;40.09;32.35;67.35;;
84579;Laerm;74804;52.100;5.116;2024-01-06T07:06:15;38.29;33.72;58.63;;
84579;Laerm;74804;52.100;5.116;2024-01-06T07:08:46;38.90;34.42;45.94;;
84579;Laerm;74804;52.100;5.116;2024-01-06T07:11:20;42.06;34.62;57.98;;
84579;Laerm;74804;52.100;5.116;2024-01-06T07:13:51;41.77;34.70;50.45;;
84579;Laerm;74804;52.100;5.116;2024-01-06T07:16:22;39.59;34.22;46.82;;
84579;Laerm;74804;52.100;5.116;2024-01-06T07:18:54;40.43;35.41;57.79;;
84579;Laerm;74804;52.100;5.116;2024-01-06T07:21:25;40.88;34.86;56.16;;
84579;Laerm;74804;52.100;5.116;2024-01-06T07:23:56;40.66;35.52;47.33;;
84579;Laerm;74804;52.100;5.116;2024-01-06T07:26:31;39.87;34.89;52.31;;
84579;Laerm;74804;52.100;5.116;2024-01-06T07:29:02;44.42;36.31;59.13;;
84579;Laerm;74804;52.100;5.116;2024-01-06T07:31:35;39.94;34.38;59.74;;
84579;Laerm;74804;52.100;5.116;2024-01-06T07:34:06;38.14;33.90;52.11;;
84579;Laerm;74804;52.100;5.116;2024-01-06T07:36:37;38.75;34.48;44.70;;
84579;Laerm;74804;52.100;5.116;2024-01-06T07:39:09;41.15;34.45;56.00;;
84579;Laerm;74804;52.100;5.116;2024-01-06T07:41:43;45.96;34.54;64.83;;
84579;Laerm;74804;52.100;5.116;2024-01-06T07:44:14;44.89;33.94;63.29;;
84579;Laerm;74804;52.100;5.116;2024-01-06T07:46:52;45.52;33.92;70.02;;
84579;Laerm;74804;52.100;5.116;2024-01-06T07:49:23;39.61;35.29;55.31;;
84579;Laerm;74804;52.100;5.116;2024-01-06T07:51:54;42.72;34.95;52.99;;
84579;Laerm;74804;52.100;5.116;2024-01-06T07:54:25;40.90;35.48;52.61;;
84579;Laerm;74804;52.100;5.116;2024-01-06T07:56:59;40.50;35.18;51.97;;
84579;Laerm;74804;52.100;5.116;2024-01-06T07:59:30;39.36;35.13;56.60;;
84579;Laerm;74804;52.100;5.116;2024-01-06T08:02:02;42.96;36.10;55.58;;
84579;Laerm;74804;52.100;5.116;2024-01-06T08:04:33;42.68;35.03;57.05;;
84579;Laerm;74804;52.100;5.116;2024-01-06T08:07:04;43.54;35.83;54.54;;
84579;Laerm;74804;52.100;5.116;2024-01-06T08:09:35;40.19;35.83;49.29;;
84579;Laerm;74804;52.100;5.116;2024-01-06T08:12:09;43.40;37.20;63.38;;
84579;Laerm;74804;52.100;5.116;2024-01-06T08:14:40;42.69;35.07;62.86;;
84579;Laerm;74804;52.100;5.116;2024-01-06T08:17:11;39.82;35.74;55.01;;
84579;Laerm;74804;52.100;5.116;2024-01-06T08:19:43;40.78;34.81;61.61;;
84579;Laerm;74804;52.100;5.116;2024-01-06T08:22:14;43.54;36.79;64.68;;
84579;Laerm;74804;52.100;5.116;2024-01-06T08:24:45;51.47;34.95;81.20;;
84579;Laerm;74804;52.100;5.116;2024-01-06T08:27:19;42.67;36.78;62.31;;
84579;Laerm;74804;52.100;5.116;2024-01-06T08:29:51;40.75;36.71;53.30;;
84579;Laerm;74804;52.100;5.116;2024-01-06T08:32:22;40.64;36.04;52.39;;
84579;Laerm;74804;52.100;5.116;2024-01-06T08:34:53;41.71;37.21;54.00;;
84579;Laerm;74804;52.100;5.116;2024-01-06T08:37:24;41.41;36.63;54.83;;
84579;Laerm;74804;52.100;5.116;2024-01-06T08:39:56;42.41;37.39;55.97;;
84579;Laerm;74804;52.100;5.116;2024-01-06T08:42:29;41.96;35.89;52.60;;
84579;Laerm;74804;52.100;5.116;2024-01-06T08:45:01;46.85;37.76;66.45;;
84579;Laerm;74804;52.100;5.116;2024-01-06T08:47:32;44.21;37.85;54.25;;
84579;Laerm;74804;52.100;5.116;2024-01-06T08:50:04;40.40;36.99;50.63;;
84579;Laerm;74804;52.100;5.116;2024-01-06T08:52:35;43.50;36.57;59.10;;
84579;Laerm;74804;52.100;5.116;2024-01-06T08:55:07;52.20;37.51;72.45;;
84579;Laerm;74804;52.100;5.116;2024-01-06T08:57:41;45.73;36.78;69.14;;
84579;Laerm;74804;52.100;5.116;2024-01-06T09:00:12;48.97;36.08;71.94;;
84579;Laerm;74804;52.100;5.116;2024-01-06T09:02:44;45.68;37.74;66.98;;
84579;Laerm;74804;52.100;5.116;2024-01-06T09:05:16;44.95;38.36;59.41;;
84579;Laerm;74804;52.100;5.116;2024-01-06T09:07:47;44.63;39.10;55.51;;
84579;Laerm;74804;52.100;5.116;2024-01-06T09:10:18;44.64;37.82;55.03;;
84579;Laerm;74804;52.100;5.116;2024-01-06T09:12:55;43.34;36.32;59.65;;
84579;Laerm;74804;52.100;5.116;2024-01-06T09:15:27;42.43;36.68;59.12;;
84579;Laerm;74804;52.100;5.116;2024-01-06T09:17:59;41.55;37.08;56.16;;
84579;Laerm;74804;52.100;5.116;2024-01-06T09:20:30;47.80;35.74;74.71;;
84579;Laerm;74804;52.100;5.116;2024-01-06T09:23:02;46.94;37.43;66.25;;
84579;Laerm;74804;52.100;5.116;2024-01-06T09:25:33;46.56;37.42;67.31;;
84579;Laerm;74804;52.100;5.116;2024-01-06T09:28:07;43.31;36.93;62.63;;
84579;Laerm;74804;52.100;5.116;2024-01-06T09:30:38;42.82;38.42;55.03;;
84579;Laerm;74804;52.100;5.116;2024-01-06T09:33:09;46.78;37.95;58.48;;
84579;Laerm;74804;52.100;5.116;2024-01-06T09:35:43;45.05;38.12;54.93;;
84579;Laerm;74804;52.100;5.116;2024-01-06T09:38:14;45.93;37.88;61.48;;
84579;Laerm;74804;52.100;5.116;2024-01-06T09:40:46;47.77;36.74;69.37;;
84579;Laerm;74804;52.100;5.116;2024-01-06T09:43:19;45.10;37.26;60.57;;
84579;Laerm;74804;52.100;5.116;2024-01-06T09:45:53;42.39;37.46;58.26;;
84579;Laerm;74804;52.100;5.116;2024-01-06T09:48:29;45.71;37.83;60.60;;
84579;Laerm;74804;52.100;5.116;2024-01-06T09:51:03;43.34;38.10;57.47;;
84579;Laerm;74804;52.100;5.116;2024-01-06T09:53:34;42.65;37.71;55.26;;
84579;Laerm;74804;52.100;5.116;2024-01-06T09:56:07;45.09;37.46;63.45;;
84579;Laerm;74804;52.100;5.116;2024-01-06T09:58:41;45.35;39.73;65.03;;
84579;Laerm;74804;52.100;5.116;2024-01-06T10:01:12;43.60;37.90;53.92;;
84579;Laerm;74804;52.100;5.116;2024-01-06T10:03:44;43.26;38.67;59.02;;
84579;Laerm;74804;52.100;5.116;2024-01-06T10:06:16;42.86;38.74;53.19;;
84579;Laerm;74804;52.100;5.116;2024-01-06T10:08:48;45.17;38.69;59.43;;
84579;Laerm;74804;52.100;5.116;2024-01-06T10:11:19;43.06;39.07;60.11;;
84579;Laerm;74804;52.100;5.116;2024-01-06T10:13:53;50.32;39.25;67.74;;
84579;Laerm;74804;52.100;5.116;2024-01-06T10:16:25;45.88;37.98;59.63;;
84579;Laerm;74804;52.100;5.116;2024-01-06T10:18:56;47.77;37.92;61.92;;
84579;Laerm;74804;52.100;5.116;2024-01-06T10:21:27;48.05;37.48;64.41;;
84579;Laerm;74804;52.100;5.116;2024-01-06T10:23:59;46.34;39.21;62.79;;
84579;Laerm;74804;52.100;5.116;2024-01-06T10:26:30;48.75;37.27;64.96;;
84579;Laerm;74804;52.100;5.116;2024-01-06T10:29:04;43.91;36.35;62.07;;
84579;Laerm;74804;52.100;5.116;2024-01-06T10:31:35;46.12;37.90;56.59;;
84579;Laerm;74804;52.100;5.116;2024-01-06T10:34:07;43.28;37.66;53.62;;
84579;Laerm;74804;52.100;5.116;2024-01-06T10:36:38;43.51;37.11;59.90;;
84579;Laerm;74804;52.100;5.116;2024-01-06T10:39:09;42.73;36.82;59.84;;
84579;Laerm;74804;52.100;5.116;2024-01-06T10:41:43;42.57;37.08;55.04;;
84579;Laerm;74804;52.100;5.116;2024-01-06T10:44:17;44.46;37.71;65.82;;
84579;Laerm;74804;52.100;5.116;2024-01-06T10:46:48;41.94;37.57;55.03;;
84579;Laerm;74804;52.100;5.116;2024-01-06T10:49:20;44.25;38.25;61.23;;
84579;Laerm;74804;52.100;5.116;2024-01-06T10:51:53;44.97;38.23;61.17;;
84579;Laerm;74804;52.100;5.116;2024-01-06T10:54:25;45.58;38.62;65.94;;
84579;Laerm;74804;52.100;5.116;2024-01-06T10:56:58;51.53;37.37;70.53;;
84579;Laerm;74804;52.100;5.116;2024-01-06T10:59:32;44.14;37.99;58.22;;
84579;Laerm;74804;52.100;5.116;2024-01-06T11:02:04;42.70;37.99;58.38;;
84579;Laerm;74804;52.100;5.116;2024-01-06T11:04:38;43.29;38.64;57.33;;
84579;Laerm;74804;52.100;5.116;2024-01-06T11:07:09;41.95;39.05;54.00;;
84579;Laerm;74804;52.100;5.116;2024-01-06T11:09:41;41.24;36.80;52.79;;
84579;Laerm;74804;52.100;5.116;2024-01-06T11:12:17;43.43;37.54;62.20;;
84579;Laerm;74804;52.100;5.116;2024-01-06T11:14:50;41.31;36.65;53.26;;
84579;Laerm;74804;52.100;5.116;2024-01-06T11:20:10;42.93;37.62;55.60;;
84579;Laerm;74804;52.100;5.116;2024-01-06T11:22:41;46.51;38.43;62.57;;
84579;Laerm;74804;52.100;5.116;2024-01-06T11:25:13;44.20;37.81;57.57;;
84579;Laerm;74804;52.100;5.116;2024-01-06T11:27:46;44.26;37.98;60.60;;
84579;Laerm;74804;52.100;5.116;2024-01-06T11:30:24;44.50;39.03;60.05;;
84579;Laerm;74804;52.100;5.116;2024-01-06T11:32:56;42.70;37.05;59.75;;
84579;Laerm;74804;52.100;5.116;2024-01-06T11:35:28;43.52;36.94;58.41;;
84579;Laerm;74804;52.100;5.116;2024-01-06T11:38:00;45.19;37.94;63.24;;
84579;Laerm;74804;52.100;5.116;2024-01-06T11:40:33;45.67;38.41;63.70;;
84579;Laerm;74804;52.100;5.116;2024-01-06T11:43:05;44.59;37.03;61.15;;
84579;Laerm;74804;52.100;5.116;2024-01-06T11:45:40;46.71;37.27;65.45;;
84579;Laerm;74804;52.100;5.116;2024-01-06T11:48:11;47.01;37.08;64.76;;
84579;Laerm;74804;52.100;5.116;2024-01-06T11:50:46;53.96;40.41;68.95;;
84579;Laerm;74804;52.100;5.116;2024-01-06T11:53:17;44.07;37.72;55.37;;
84579;Laerm;74804;52.100;5.116;2024-01-06T11:55:48;44.20;37.63;55.45;;
84579;Laerm;74804;52.100;5.116;2024-01-06T11:58:20;43.60;38.21;59.10;;
84579;Laerm;74804;52.100;5.116;2024-01-06T12:00:57;44.16;39.78;57.56;;
84579;Laerm;74804;52.100;5.116;2024-01-06T12:03:28;43.11;39.85;49.79;;
84579;Laerm;74804;52.100;5.116;2024-01-06T12:05:59;44.89;39.50;61.33;;
84579;Laerm;74804;52.100;5.116;2024-01-06T12:08:32;53.03;39.85;76.49;;
84579;Laerm;74804;52.100;5.116;2024-01-06T12:11:03;42.99;38.61;56.52;;
84579;Laerm;74804;52.100;5.116;2024-01-06T12:13:35;42.48;38.69;55.13;;
84579;Laerm;74804;52.100;5.116;2024-01-06T12:16:08;47.38;38.81;67.47;;
84579;Laerm;74804;52.100;5.116;2024-01-06T12:18:40;44.81;39.08;59.21;;
84579;Laerm;74804;52.100;5.116;2024-01-06T12:21:11;41.44;38.38;50.88;;
84579;Laerm;74804;52.100;5.116;2024-01-06T12:23:42;45.40;39.29;60.34;;
84579;Laerm;74804;52.100;5.116;2024-01-06T12:26:14;46.53;39.08;56.18;;
84579;Laerm;74804;52.100;5.116;2024-01-06T12:28:45;42.61;38.99;55.09;;
84579;Laerm;74804;52.100;5.116;2024-01-06T12:31:19;44.33;38.63;58.09;;
84579;Laerm;74804;52.100;5.116;2024-01-06T12:33:51;44.96;36.98;59.52;;
84579;Laerm;74804;52.100;5.116;2024-01-06T12:36:22;45.79;37.80;63.98;;
84579;Laerm;74804;52.100;5.116;2024-01-06T12:38:53;45.80;37.72;58.85;;
84579;Laerm;74804;52.100;5.116;2024-01-06T12:41:26;42.84;37.69;58.62;;
84579;Laerm;74804;52.100;5.116;2024-01-06T12:44:00;43.45;37.23;59.29;;
84579;Laerm;74804;52.100;5.116;2024-01-06T12:46:34;43.63;37.33;62.97;;
84579;Laerm;74804;52.100;5.116;2024-01-06T12:49:05;45.51;37.12;63.74;;
84579;Laerm;74804;52.100;5.116;2024-01-06T12:51:36;43.11;38.04;55.81;;
84579;Laerm;74804;52.100;5.116;2024-01-06T12:54:07;42.29;38.37;54.08;;
84579;Laerm;74804;52.100;5.116;2024-01-06T12:56:38;41.44;36.20;53.89;;
84579;Laerm;74804;52.100;5.116;2024-01-06T12:59:10;44.04;39.00;59.23;;
84579;Laerm;74804;52.100;5.116;2024-01-06T13:01:44;43.80;38.39;59.59;;
84579;Laerm;74804;52.100;5.116;2024-01-06T13:04:16;42.27;37.47;55.30;;
84579;Laerm;74804;52.100;5.116;2024-01-06T13:06:47;42.26;37.96;54.46;;
84579;Laerm;74804;52.100;5.116;2024-01-06T13:09:19;43.00;38.55;53.18;;
84579;Laerm;74804;52.100;5.116;2024-01-06T13:11:51;44.39;37.43;64.11;;
84579;Laerm;74804;52.100;5.116;2024-01-06T13:14:23;43.13;36.87;55.88;;
84579;Laerm;74804;52.100;5.116;2024-01-06T13:16:57;44.24;37.33;58.18;;
84579;Laerm;74804;52.100;5.116;2024-01-06T13:19:28;45.60;37.66;70.66;;
84579;Laerm;74804;52.100;5.116;2024-01-06T13:21:59;44.47;38.86;57.14;;
84579;Laerm;74804;52.100;5.116;2024-01-06T13:24:30;43.16;37.67;53.94;;
84579;Laerm;74804;52.100;5.116;2024-01-06T13:27:01;44.74;37.91;61.71;;
84579;Laerm;74804;52.100;5.116;2024-01-06T13:29:33;41.80;38.63;49.39;;
84579;Laerm;74804;52.100;5.116;2024-01-06T13:32:07;45.31;38.79;57.40;;
84579;Laerm;74804;52.100;5.116;2024-01-06T13:34:38;42.89;37.07;53.91;;
84579;Laerm;74804;52.100;5.116;2024-01-06T13:37:09;44.13;37.54;63.88;;
84579;Laerm;74804;52.100;5.116;2024-01-06T13:39:40;45.81;38.24;61.07;;
84579;Laerm;74804;52.100;5.116;2024-01-06T13:42:11;44.08;38.66;59.60;;
84579;Laerm;74804;52.100;5.116;2024-01-06T13:44:42;43.15;38.77;57.23;;
84579;Laerm;74804;52.100;5.116;2024-01-06T13:47:18;45.18;38.61;55.65;;
84579;Laerm;74804;52.100;5.116;2024-01-06T13:49:49;44.49;38.66;58.46;;
84579;Laerm;74804;52.100;5.116;2024-01-06T13:52:22;45.32;37.38;57.75;;
84579;Laerm;74804;52.100;5.116;2024-01-06T13:54:54;44.09;38.69;60.29;;
84579;Laerm;74804;52.100;5.116;2024-01-06T13:57:25;43.47;38.36;53.09;;
84579;Laerm;74804;52.100;5.116;2024-01-06T13:59:56;47.99;37.85;72.18;;
84579;Laerm;74804;52.100;5.116;2024-01-06T14:02:30;47.44;38.30;67.52;;
84579;Laerm;74804;52.100;5.116;2024-01-06T14:05:01;42.09;36.62;62.48;;
84579;Laerm;74804;52.100;5.116;2024-01-06T14:07:32;43.90;37.26;62.27;;
84579;Laerm;74804;52.100;5.116;2024-01-06T14:10:06;45.82;37.23;65.05;;
84579;Laerm;74804;52.100;5.116;2024-01-06T14:12:37;45.54;39.71;66.51;;